BWA224 TBPB-TLPC
Flight info
| Callsign | BWA224 |
|---|---|
| Flight time | 0h 39m |
| Altitude | 12000 |
| Route | TEDDY DCT ILOGO/N0286F110 DCT DERMI DCT SLU |
| Aircraft | AT76/M-SDFGIRY/S |
Departure
| Time | 2026-04-20 21:53 |
|---|---|
| Airport | Grantley Adams International Airport (TBPB) |
Arrival
| Time | 2026-04-20 22:33 |
|---|---|
| Airport | George F. L. Charles Airport (TLPC) |
| Time | Latitude | Longitude | Altitude | Speed | Heading |
|---|---|---|---|---|---|
| 2026-04-20 21:43 | 13.07861 | -59.48877 | 173 ft | 0 kts | 345° |
| 2026-04-20 21:48 | 13.07862 | -59.48879 | 173 ft | 0 kts | 321° |
| 2026-04-20 21:48 | 13.07861 | -59.48884 | 173 ft | 1 kts | 263° |
| 2026-04-20 21:48 | 13.07834 | -59.48898 | 173 ft | 8 kts | 202° |
| 2026-04-20 21:48 | 13.07768 | -59.48923 | 173 ft | 12 kts | 200° |
| 2026-04-20 21:49 | 13.07695 | -59.48971 | 173 ft | 14 kts | 238° |
| 2026-04-20 21:49 | 13.07664 | -59.49080 | 173 ft | 18 kts | 256° |
| 2026-04-20 21:49 | 13.07632 | -59.49209 | 173 ft | 20 kts | 256° |
| 2026-04-20 21:49 | 13.07597 | -59.49351 | 173 ft | 21 kts | 256° |
| 2026-04-20 21:50 | 13.07559 | -59.49503 | 172 ft | 22 kts | 256° |
| 2026-04-20 21:50 | 13.07523 | -59.49655 | 173 ft | 22 kts | 256° |
| 2026-04-20 21:50 | 13.07485 | -59.49808 | 173 ft | 21 kts | 256° |
| 2026-04-20 21:50 | 13.07449 | -59.49958 | 173 ft | 22 kts | 256° |
| 2026-04-20 21:51 | 13.07414 | -59.50104 | 173 ft | 19 kts | 256° |
| 2026-04-20 21:51 | 13.07374 | -59.50195 | 173 ft | 13 kts | 208° |
| 2026-04-20 21:51 | 13.07298 | -59.50181 | 174 ft | 10 kts | 160° |
| 2026-04-20 21:51 | 13.07248 | -59.50157 | 174 ft | 6 kts | 140° |
| 2026-04-20 21:52 | 13.07238 | -59.50131 | 175 ft | 2 kts | 92° |
| 2026-04-20 21:52 | 13.07241 | -59.50111 | 175 ft | 6 kts | 79° |
| 2026-04-20 21:52 | 13.07267 | -59.50008 | 175 ft | 30 kts | 76° |
| 2026-04-20 21:52 | 13.07366 | -59.49602 | 172 ft | 88 kts | 76° |
| 2026-04-20 21:53 | 13.07555 | -59.48853 | 359 ft | 117 kts | 76° |
| 2026-04-20 21:53 | 13.07773 | -59.48006 | 767 ft | 128 kts | 77° |
| 2026-04-20 21:53 | 13.07658 | -59.47097 | 1260 ft | 135 kts | 113° |
| 2026-04-20 21:53 | 13.06830 | -59.46599 | 1783 ft | 152 kts | 176° |
| 2026-04-20 21:54 | 13.05824 | -59.47022 | 2186 ft | 170 kts | 214° |
| 2026-04-20 21:54 | 13.05020 | -59.48007 | 2579 ft | 187 kts | 238° |
| 2026-04-20 21:54 | 13.04725 | -59.49315 | 2952 ft | 200 kts | 280° |
| 2026-04-20 21:54 | 13.05225 | -59.50654 | 3318 ft | 206 kts | 298° |
| 2026-04-20 21:55 | 13.05932 | -59.51966 | 3696 ft | 212 kts | 306° |
| 2026-04-20 21:55 | 13.06754 | -59.53247 | 4044 ft | 219 kts | 304° |
| 2026-04-20 21:55 | 13.07601 | -59.54558 | 4370 ft | 224 kts | 306° |
| 2026-04-20 21:55 | 13.08479 | -59.55904 | 4699 ft | 231 kts | 306° |
| 2026-04-20 21:56 | 13.09405 | -59.57276 | 4998 ft | 235 kts | 308° |
| 2026-04-20 21:56 | 13.10378 | -59.58621 | 5307 ft | 237 kts | 310° |
| 2026-04-20 21:56 | 13.11372 | -59.59973 | 5654 ft | 239 kts | 309° |
| 2026-04-20 21:56 | 13.12401 | -59.61333 | 5976 ft | 241 kts | 309° |
| 2026-04-20 21:57 | 13.13436 | -59.62681 | 6299 ft | 242 kts | 309° |
| 2026-04-20 21:57 | 13.14469 | -59.64031 | 6584 ft | 243 kts | 310° |
| 2026-04-20 21:57 | 13.15510 | -59.65393 | 6891 ft | 243 kts | 310° |
| 2026-04-20 21:57 | 13.16562 | -59.66761 | 7146 ft | 245 kts | 309° |
| 2026-04-20 21:58 | 13.17634 | -59.68131 | 7381 ft | 247 kts | 310° |
| 2026-04-20 21:58 | 13.18726 | -59.69512 | 7618 ft | 248 kts | 310° |
| 2026-04-20 21:58 | 13.19812 | -59.70882 | 7858 ft | 249 kts | 309° |
| 2026-04-20 21:58 | 13.20914 | -59.72258 | 8107 ft | 250 kts | 310° |
| 2026-04-20 21:59 | 13.22086 | -59.73589 | 8356 ft | 249 kts | 314° |
| 2026-04-20 21:59 | 13.23282 | -59.74883 | 8600 ft | 250 kts | 313° |
| 2026-04-20 21:59 | 13.24408 | -59.76220 | 8850 ft | 249 kts | 309° |
| 2026-04-20 21:59 | 13.25438 | -59.77676 | 9106 ft | 249 kts | 303° |
| 2026-04-20 22:00 | 13.26358 | -59.79171 | 9354 ft | 249 kts | 301° |
| 2026-04-20 22:00 | 13.27244 | -59.80686 | 9597 ft | 248 kts | 301° |
| 2026-04-20 22:00 | 13.28126 | -59.82196 | 9851 ft | 248 kts | 301° |
| 2026-04-20 22:00 | 13.29031 | -59.83700 | 10088 ft | 248 kts | 302° |
| 2026-04-20 22:01 | 13.29968 | -59.85199 | 10323 ft | 247 kts | 303° |
| 2026-04-20 22:01 | 13.30895 | -59.86675 | 10558 ft | 247 kts | 302° |
| 2026-04-20 22:01 | 13.31823 | -59.88158 | 10791 ft | 247 kts | 302° |
| 2026-04-20 22:01 | 13.32747 | -59.89643 | 11020 ft | 247 kts | 302° |
| 2026-04-20 22:02 | 13.33671 | -59.91112 | 11260 ft | 247 kts | 302° |
| 2026-04-20 22:02 | 13.34609 | -59.92604 | 11495 ft | 247 kts | 302° |
| 2026-04-20 22:02 | 13.35533 | -59.94089 | 11736 ft | 247 kts | 302° |
| 2026-04-20 22:02 | 13.36471 | -59.95603 | 11846 ft | 253 kts | 302° |
| 2026-04-20 22:03 | 13.37419 | -59.97121 | 11905 ft | 260 kts | 302° |
| 2026-04-20 22:03 | 13.38408 | -59.98709 | 11937 ft | 266 kts | 302° |
| 2026-04-20 22:03 | 13.39409 | -60.00312 | 11950 ft | 271 kts | 302° |
| 2026-04-20 22:03 | 13.40428 | -60.01943 | 12086 ft | 269 kts | 302° |
| 2026-04-20 22:04 | 13.41432 | -60.03549 | 12288 ft | 265 kts | 302° |
| 2026-04-20 22:04 | 13.42429 | -60.05149 | 12305 ft | 270 kts | 301° |
| 2026-04-20 22:04 | 13.43460 | -60.06810 | 12253 ft | 276 kts | 302° |
| 2026-04-20 22:04 | 13.44493 | -60.08459 | 12444 ft | 271 kts | 302° |
| 2026-04-20 22:05 | 13.45499 | -60.10067 | 12663 ft | 267 kts | 301° |
| 2026-04-20 22:05 | 13.46496 | -60.11663 | 12741 ft | 268 kts | 301° |
| 2026-04-20 22:05 | 13.47515 | -60.13306 | 12710 ft | 273 kts | 301° |
| 2026-04-20 22:05 | 13.48525 | -60.14932 | 12834 ft | 270 kts | 301° |
| 2026-04-20 22:06 | 13.49546 | -60.16574 | 12878 ft | 272 kts | 302° |
| 2026-04-20 22:06 | 13.50569 | -60.18209 | 12915 ft | 274 kts | 302° |
| 2026-04-20 22:06 | 13.51601 | -60.19872 | 12896 ft | 278 kts | 301° |
| 2026-04-20 22:06 | 13.52644 | -60.21545 | 12988 ft | 277 kts | 301° |
| 2026-04-20 22:07 | 13.53674 | -60.23196 | 13207 ft | 271 kts | 301° |
| 2026-04-20 22:07 | 13.54672 | -60.24801 | 13223 ft | 274 kts | 302° |
| 2026-04-20 22:07 | 13.55730 | -60.26507 | 13035 ft | 283 kts | 302° |
| 2026-04-20 22:07 | 13.56798 | -60.28211 | 13242 ft | 276 kts | 302° |
| 2026-04-20 22:08 | 13.57826 | -60.29839 | 13412 ft | 274 kts | 302° |
| 2026-04-20 22:08 | 13.58866 | -60.31483 | 13348 ft | 279 kts | 302° |
| 2026-04-20 22:08 | 13.59945 | -60.33194 | 13283 ft | 284 kts | 302° |
| 2026-04-20 22:08 | 13.60999 | -60.34866 | 13567 ft | 273 kts | 301° |
| 2026-04-20 22:09 | 13.62002 | -60.36485 | 13721 ft | 270 kts | 301° |
| 2026-04-20 22:09 | 13.63036 | -60.38158 | 13477 ft | 281 kts | 301° |
| 2026-04-20 22:09 | 13.64099 | -60.39882 | 13405 ft | 284 kts | 301° |
| 2026-04-20 22:09 | 13.65133 | -60.41559 | 13709 ft | 272 kts | 301° |
| 2026-04-20 22:10 | 13.66129 | -60.43179 | 13731 ft | 274 kts | 301° |
| 2026-04-20 22:10 | 13.67167 | -60.44862 | 13568 ft | 281 kts | 301° |
| 2026-04-20 22:10 | 13.68207 | -60.46542 | 13728 ft | 275 kts | 301° |
| 2026-04-20 22:10 | 13.69222 | -60.48172 | 13792 ft | 263 kts | 301° |
| 2026-04-20 22:11 | 13.70202 | -60.49748 | 13520 ft | 264 kts | 302° |
| 2026-04-20 22:11 | 13.71186 | -60.51340 | 13220 ft | 266 kts | 302° |
| 2026-04-20 22:11 | 13.72188 | -60.52962 | 12894 ft | 269 kts | 302° |
| 2026-04-20 22:11 | 13.73188 | -60.54581 | 12631 ft | 268 kts | 300° |
| 2026-04-20 22:12 | 13.73787 | -60.56366 | 12349 ft | 263 kts | 279° |
| 2026-04-20 22:12 | 13.73996 | -60.58253 | 12005 ft | 267 kts | 276° |
| 2026-04-20 22:12 | 13.74167 | -60.60146 | 11714 ft | 268 kts | 277° |
| 2026-04-20 22:12 | 13.74399 | -60.62025 | 11628 ft | 260 kts | 279° |
| 2026-04-20 22:13 | 13.74693 | -60.63847 | 11492 ft | 256 kts | 281° |
| 2026-04-20 22:13 | 13.75001 | -60.65663 | 11105 ft | 263 kts | 281° |
| 2026-04-20 22:13 | 13.75319 | -60.67543 | 10818 ft | 263 kts | 280° |
| 2026-04-20 22:13 | 13.75600 | -60.69330 | 10619 ft | 247 kts | 280° |
| 2026-04-20 22:14 | 13.75862 | -60.71070 | 10230 ft | 246 kts | 279° |
| 2026-04-20 22:14 | 13.76119 | -60.72800 | 9847 ft | 244 kts | 279° |
| 2026-04-20 22:14 | 13.76371 | -60.74503 | 9466 ft | 241 kts | 280° |
| 2026-04-20 22:14 | 13.76626 | -60.76216 | 9129 ft | 238 kts | 279° |
| 2026-04-20 22:15 | 13.76868 | -60.77871 | 8804 ft | 235 kts | 280° |
| 2026-04-20 22:15 | 13.77108 | -60.79541 | 8491 ft | 233 kts | 280° |
| 2026-04-20 22:15 | 13.77351 | -60.81181 | 8179 ft | 232 kts | 280° |
| 2026-04-20 22:15 | 13.77597 | -60.82816 | 7946 ft | 227 kts | 280° |
| 2026-04-20 22:16 | 13.77840 | -60.84394 | 7741 ft | 223 kts | 281° |
| 2026-04-20 22:16 | 13.78069 | -60.85966 | 7532 ft | 221 kts | 281° |
| 2026-04-20 22:16 | 13.78292 | -60.87531 | 7316 ft | 220 kts | 281° |
| 2026-04-20 22:16 | 13.78524 | -60.89082 | 7047 ft | 222 kts | 281° |
| 2026-04-20 22:17 | 13.78764 | -60.90623 | 6749 ft | 213 kts | 281° |
| 2026-04-20 22:17 | 13.78996 | -60.92095 | 6464 ft | 204 kts | 282° |
| 2026-04-20 22:17 | 13.79197 | -60.93500 | 6170 ft | 198 kts | 281° |
| 2026-04-20 22:17 | 13.79401 | -60.94880 | 5886 ft | 194 kts | 282° |
| 2026-04-20 22:18 | 13.79608 | -60.96267 | 5582 ft | 198 kts | 281° |
| 2026-04-20 22:18 | 13.79825 | -60.97683 | 5311 ft | 206 kts | 281° |
| 2026-04-20 22:18 | 13.80057 | -60.99182 | 5028 ft | 212 kts | 282° |
| 2026-04-20 22:18 | 13.80291 | -61.00667 | 4840 ft | 214 kts | 281° |
| 2026-04-20 22:19 | 13.80530 | -61.02194 | 4647 ft | 218 kts | 281° |
| 2026-04-20 22:19 | 13.80693 | -61.03226 | 4465 ft | 220 kts | 281° |
| 2026-04-20 22:19 | 13.81013 | -61.05312 | 4155 ft | 221 kts | 280° |
| 2026-04-20 22:19 | 13.81240 | -61.06852 | 3859 ft | 212 kts | 280° |
| 2026-04-20 22:20 | 13.81455 | -61.08313 | 3542 ft | 203 kts | 279° |
| 2026-04-20 22:20 | 13.81660 | -61.09728 | 3273 ft | 194 kts | 280° |
| 2026-04-20 22:20 | 13.81849 | -61.11065 | 2989 ft | 187 kts | 279° |
| 2026-04-20 22:20 | 13.82039 | -61.12377 | 2778 ft | 180 kts | 279° |
| 2026-04-20 22:21 | 13.82218 | -61.13637 | 2635 ft | 177 kts | 279° |
| 2026-04-20 22:21 | 13.82397 | -61.14875 | 2489 ft | 174 kts | 280° |
| 2026-04-20 22:21 | 13.82514 | -61.15693 | 2400 ft | 172 kts | 279° |
| 2026-04-20 22:21 | 13.82736 | -61.17268 | 2287 ft | 164 kts | 281° |
| 2026-04-20 22:22 | 13.82897 | -61.18378 | 2218 ft | 150 kts | 281° |
| 2026-04-20 22:22 | 13.83052 | -61.19402 | 2134 ft | 140 kts | 282° |
| 2026-04-20 22:22 | 13.83151 | -61.20049 | 2092 ft | 138 kts | 282° |
| 2026-04-20 22:22 | 13.83467 | -61.20942 | 2013 ft | 128 kts | 324° |
| 2026-04-20 22:23 | 13.84258 | -61.21236 | 2007 ft | 122 kts | 356° |
| 2026-04-20 22:23 | 13.85118 | -61.21355 | 1992 ft | 129 kts | 2° |
| 2026-04-20 22:23 | 13.86028 | -61.21418 | 1988 ft | 133 kts | 5° |
| 2026-04-20 22:23 | 13.86972 | -61.21433 | 1988 ft | 136 kts | 5° |
| 2026-04-20 22:24 | 13.87928 | -61.21429 | 1978 ft | 137 kts | 5° |
| 2026-04-20 22:24 | 13.88874 | -61.21429 | 1970 ft | 135 kts | 6° |
| 2026-04-20 22:24 | 13.89815 | -61.21429 | 1980 ft | 134 kts | 7° |
| 2026-04-20 22:24 | 13.90746 | -61.21420 | 1984 ft | 133 kts | 7° |
| 2026-04-20 22:25 | 13.91671 | -61.21402 | 1979 ft | 133 kts | 6° |
| 2026-04-20 22:25 | 13.92607 | -61.21385 | 1989 ft | 135 kts | 5° |
| 2026-04-20 22:25 | 13.93237 | -61.21376 | 1981 ft | 135 kts | 5° |
| 2026-04-20 22:25 | 13.94481 | -61.21371 | 1986 ft | 136 kts | 6° |
| 2026-04-20 22:26 | 13.95435 | -61.21371 | 1975 ft | 137 kts | 7° |
| 2026-04-20 22:26 | 13.96249 | -61.21019 | 1965 ft | 127 kts | 57° |
| 2026-04-20 22:26 | 13.96544 | -61.20186 | 1987 ft | 124 kts | 74° |
| 2026-04-20 22:27 | 13.96986 | -61.18446 | 1974 ft | 126 kts | 77° |
| 2026-04-20 22:27 | 13.97194 | -61.17575 | 1979 ft | 125 kts | 77° |
| 2026-04-20 22:27 | 13.97401 | -61.16717 | 1970 ft | 124 kts | 77° |
| 2026-04-20 22:27 | 13.97608 | -61.15855 | 1977 ft | 122 kts | 76° |
| 2026-04-20 22:28 | 13.97808 | -61.15009 | 1982 ft | 122 kts | 76° |
| 2026-04-20 22:28 | 13.98008 | -61.14164 | 1983 ft | 121 kts | 77° |
| 2026-04-20 22:28 | 13.98217 | -61.13334 | 1991 ft | 118 kts | 76° |
| 2026-04-20 22:28 | 13.98420 | -61.12526 | 1990 ft | 117 kts | 75° |
| 2026-04-20 22:29 | 13.98626 | -61.11713 | 1988 ft | 117 kts | 76° |
| 2026-04-20 22:29 | 13.98834 | -61.10900 | 2000 ft | 116 kts | 75° |
| 2026-04-20 22:29 | 13.99031 | -61.10103 | 2032 ft | 112 kts | 75° |
| 2026-04-20 22:29 | 13.99261 | -61.09303 | 1905 ft | 121 kts | 72° |
| 2026-04-20 22:30 | 13.99491 | -61.08472 | 1800 ft | 122 kts | 73° |
| 2026-04-20 22:30 | 13.99705 | -61.07622 | 1658 ft | 122 kts | 74° |
| 2026-04-20 22:30 | 13.99943 | -61.06794 | 1488 ft | 119 kts | 73° |
| 2026-04-20 22:30 | 14.00193 | -61.05974 | 1287 ft | 120 kts | 74° |
| 2026-04-20 22:31 | 14.00426 | -61.05163 | 1104 ft | 118 kts | 73° |
| 2026-04-20 22:31 | 14.00625 | -61.04359 | 1019 ft | 112 kts | 75° |
| 2026-04-20 22:31 | 14.00830 | -61.03608 | 872 ft | 114 kts | 75° |
| 2026-04-20 22:31 | 14.01044 | -61.02795 | 777 ft | 118 kts | 78° |
| 2026-04-20 22:32 | 14.01248 | -61.01967 | 581 ft | 123 kts | 75° |
| 2026-04-20 22:32 | 14.01470 | -61.01128 | 403 ft | 121 kts | 71° |
| 2026-04-20 22:32 | 14.01744 | -61.00321 | 175 ft | 120 kts | 75° |
| 2026-04-20 22:32 | 14.01955 | -60.99525 | 57 ft | 109 kts | 73° |
| 2026-04-20 22:33 | 14.02163 | -60.98862 | 64 ft | 71 kts | 121° |
| 2026-04-20 22:33 | 14.02143 | -60.98909 | 54 ft | 8 kts | 212° |
| 2026-04-20 22:33 | 14.02097 | -60.98969 | 53 ft | 13 kts | 242° |
| 2026-04-20 22:33 | 14.02066 | -60.99075 | 52 ft | 18 kts | 256° |
| 2026-04-20 22:34 | 14.02033 | -60.99211 | 48 ft | 20 kts | 255° |
| 2026-04-20 22:34 | 14.02000 | -60.99353 | 51 ft | 20 kts | 245° |
| 2026-04-20 22:34 | 14.01981 | -60.99471 | 48 ft | 13 kts | 285° |
| 2026-04-20 22:34 | 14.01993 | -60.99509 | 51 ft | 5 kts | 285° |
| 2026-04-20 22:35 | 14.02000 | -60.99562 | 55 ft | 8 kts | 299° |
| 2026-04-20 22:35 | 14.02015 | -60.99571 | 54 ft | 0 kts | 22° |
| 2026-04-20 22:35 | 14.02019 | -60.99565 | 50 ft | 4 kts | 62° |
| 2026-04-20 22:35 | 14.02013 | -60.99555 | 50 ft | 0 kts | 157° |